createdAt,value
2019-03-24T00:00:00.755Z,54.73
2019-03-24T00:02:28.807Z,52.67
2019-03-24T00:04:56.877Z,52.07
2019-03-24T00:07:24.930Z,54.27
2019-03-24T00:09:52.974Z,49.77
2019-03-24T00:12:21.038Z,53.70
2019-03-24T00:14:49.149Z,50.97
2019-03-24T00:17:17.198Z,52.57
2019-03-24T00:19:45.259Z,49.60
2019-03-24T00:22:13.315Z,53.90
2019-03-24T00:24:41.392Z,54.40
2019-03-24T00:27:09.432Z,49.67
2019-03-24T00:29:37.476Z,54.80
2019-03-24T00:32:05.534Z,51.50
2019-03-24T00:34:33.577Z,51.23
2019-03-24T00:37:01.638Z,51.20
2019-03-24T00:39:29.699Z,48.73
2019-03-24T00:41:57.744Z,53.97
2019-03-24T00:44:25.786Z,55.10
2019-03-24T00:46:53.910Z,55.73
2019-03-24T00:49:21.984Z,60.03
2019-03-24T00:51:50.052Z,51.13
2019-03-24T00:54:18.150Z,54.80
2019-03-24T00:56:46.220Z,50.17
2019-03-24T00:59:14.319Z,50.47
2019-03-24T01:01:42.417Z,43.60
2019-03-24T01:04:10.496Z,52.43
2019-03-24T01:06:38.567Z,50.40
2019-03-24T01:09:07.228Z,56.70
2019-03-24T01:11:35.323Z,54.60
2019-03-24T01:14:03.413Z,50.30
2019-03-24T01:16:31.483Z,50.93
2019-03-24T01:18:59.601Z,51.50
2019-03-24T01:21:27.671Z,46.47
2019-03-24T01:23:55.782Z,53.67
2019-03-24T01:26:23.927Z,46.90
2019-03-24T01:28:52.000Z,53.20
2019-03-24T01:31:20.071Z,47.07
2019-03-24T01:33:48.155Z,47.70
2019-03-24T01:36:16.235Z,51.00
2019-03-24T01:38:44.322Z,45.50
2019-03-24T01:41:12.419Z,48.37
2019-03-24T01:43:40.492Z,47.77
2019-03-24T01:46:08.559Z,51.87
2019-03-24T01:48:36.642Z,45.90
2019-03-24T01:51:06.781Z,50.83
2019-03-24T01:53:35.174Z,46.63
2019-03-24T01:56:03.354Z,46.57
2019-03-24T01:58:31.416Z,42.87
2019-03-24T02:00:59.490Z,42.13
2019-03-24T02:03:27.567Z,51.67
2019-03-24T02:05:55.668Z,42.23
2019-03-24T02:08:23.747Z,45.17
2019-03-24T02:10:51.811Z,43.87
2019-03-24T02:13:19.927Z,47.93
2019-03-24T02:15:47.995Z,44.53
2019-03-24T02:18:16.063Z,49.27
2019-03-24T02:20:44.167Z,46.80
2019-03-24T02:23:12.256Z,48.57
2019-03-24T02:25:40.336Z,59.57
2019-03-24T02:28:08.420Z,45.23
2019-03-24T02:30:36.510Z,53.47
2019-03-24T02:33:04.577Z,54.93
2019-03-24T02:35:32.662Z,54.63
2019-03-24T02:38:00.737Z,53.77
2019-03-24T02:40:28.805Z,52.23
2019-03-24T02:42:56.912Z,58.37
2019-03-24T02:45:24.982Z,62.17
2019-03-24T02:47:53.076Z,58.20
2019-03-24T02:50:21.180Z,51.80
2019-03-24T02:52:49.338Z,54.30
2019-03-24T02:55:17.499Z,65.97
2019-03-24T02:57:45.582Z,55.93
2019-03-24T03:00:14.101Z,66.40
2019-03-24T03:02:42.264Z,60.40
2019-03-24T03:05:10.423Z,58.57
2019-03-24T03:07:38.488Z,59.87
2019-03-24T03:10:07.153Z,59.47
2019-03-24T03:12:35.227Z,63.33
2019-03-24T03:15:04.603Z,59.57
2019-03-24T03:17:32.682Z,60.20
2019-03-24T03:20:00.762Z,63.23
2019-03-24T03:22:28.842Z,69.37
2019-03-24T03:24:56.919Z,58.83
2019-03-24T03:27:24.995Z,58.60
2019-03-24T03:29:53.103Z,57.70
2019-03-24T03:32:21.172Z,58.87
2019-03-24T03:34:49.341Z,63.10
2019-03-24T03:37:17.502Z,65.80
2019-03-24T03:39:45.572Z,60.17
2019-03-24T03:42:13.689Z,66.33
2019-03-24T03:44:41.754Z,70.23
2019-03-24T03:47:09.819Z,69.73
2019-03-24T03:49:37.910Z,62.50
2019-03-24T03:52:06.007Z,59.53
2019-03-24T03:54:34.077Z,64.67
2019-03-24T03:57:02.152Z,59.47
2019-03-24T03:59:30.258Z,63.30
2019-03-24T04:01:58.339Z,66.83
2019-03-24T04:04:26.420Z,63.73
2019-03-24T04:06:54.492Z,64.07
2019-03-24T04:09:22.563Z,65.27
2019-03-24T04:11:50.659Z,67.60
2019-03-24T04:14:18.723Z,69.33
2019-03-24T04:16:46.798Z,69.03
2019-03-24T04:19:14.880Z,69.10
2019-03-24T04:21:42.966Z,68.23
2019-03-24T04:24:11.059Z,67.73
2019-03-24T04:26:39.495Z,63.87
2019-03-24T04:29:07.613Z,70.43
2019-03-24T04:31:35.856Z,69.60
2019-03-24T04:34:03.938Z,65.37
2019-03-24T04:36:32.041Z,69.37
2019-03-24T04:39:00.119Z,65.60
2019-03-24T04:41:28.196Z,65.07
2019-03-24T04:43:56.274Z,67.93
2019-03-24T04:46:24.346Z,68.10
2019-03-24T04:48:52.443Z,73.97
2019-03-24T04:51:21.299Z,74.93
2019-03-24T04:53:49.467Z,72.07
2019-03-24T04:56:17.552Z,72.23
2019-03-24T04:58:45.622Z,68.83
2019-03-24T05:01:13.728Z,72.93
2019-03-24T05:03:41.799Z,68.73
2019-03-24T05:06:10.168Z,67.37
2019-03-24T05:08:38.231Z,74.30
2019-03-24T05:11:06.297Z,71.40
2019-03-24T05:13:34.367Z,63.87
2019-03-24T05:16:02.459Z,69.70
2019-03-24T05:18:30.527Z,72.77
2019-03-24T05:20:58.610Z,63.23
2019-03-24T05:23:26.763Z,65.53
2019-03-24T05:25:54.849Z,64.67
2019-03-24T05:28:22.931Z,68.03
2019-03-24T05:30:50.995Z,66.83
2019-03-24T05:33:19.107Z,68.77
2019-03-24T05:35:47.190Z,65.07
2019-03-24T05:38:15.259Z,64.87
2019-03-24T05:40:43.351Z,70.37
2019-03-24T05:43:11.423Z,63.77
2019-03-24T05:45:39.514Z,67.37
2019-03-24T05:48:07.608Z,62.20
2019-03-24T05:50:35.675Z,64.17
2019-03-24T05:53:03.963Z,70.07
2019-03-24T05:55:32.037Z,61.67
2019-03-24T05:58:00.130Z,68.70
2019-03-24T06:00:28.209Z,64.27
2019-03-24T06:02:57.316Z,60.37
2019-03-24T06:05:25.458Z,61.13
2019-03-24T06:07:53.531Z,57.67
2019-03-24T06:10:21.602Z,61.33
2019-03-24T06:12:49.763Z,58.30
2019-03-24T06:15:17.828Z,62.40
2019-03-24T06:17:47.970Z,65.07
2019-03-24T06:20:15.715Z,65.23
2019-03-24T06:22:43.807Z,59.17
2019-03-24T06:25:12.059Z,72.33
2019-03-24T06:27:40.154Z,66.23
2019-03-24T06:30:08.505Z,59.00
2019-03-24T06:32:36.579Z,58.13
2019-03-24T06:35:05.878Z,58.83
2019-03-24T06:37:34.034Z,61.40
2019-03-24T06:40:02.112Z,60.20
2019-03-24T06:42:30.203Z,62.77
2019-03-24T06:44:58.368Z,57.30
2019-03-24T06:47:26.447Z,60.80
2019-03-24T06:49:54.551Z,66.30
2019-03-24T06:52:22.747Z,64.67
2019-03-24T06:54:50.859Z,59.73
2019-03-24T06:57:18.956Z,60.17
2019-03-24T06:59:47.022Z,60.50
2019-03-24T07:02:15.108Z,61.70
2019-03-24T07:04:43.255Z,59.40
2019-03-24T07:07:11.351Z,57.83
2019-03-24T07:09:39.443Z,56.90
2019-03-24T07:12:07.783Z,53.00
2019-03-24T07:14:35.891Z,50.80
2019-03-24T07:17:03.987Z,52.40
2019-03-24T07:19:32.059Z,51.57
2019-03-24T07:22:00.172Z,55.37
2019-03-24T07:24:28.262Z,49.13
2019-03-24T07:26:56.341Z,49.53
2019-03-24T07:29:24.404Z,48.47
2019-03-24T07:31:52.494Z,51.27
2019-03-24T07:34:20.578Z,46.43
2019-03-24T07:36:48.663Z,53.07
2019-03-24T07:39:38.731Z,51.90
2019-03-24T07:42:06.846Z,48.33
2019-03-24T07:44:34.994Z,48.43
2019-03-24T07:47:04.622Z,51.70
2019-03-24T07:49:32.900Z,53.07
2019-03-24T07:52:00.960Z,52.37
2019-03-24T07:54:29.038Z,54.83
2019-03-24T07:56:57.087Z,52.67
2019-03-24T07:59:25.164Z,52.33
2019-03-24T08:01:53.224Z,50.23
2019-03-24T08:04:21.402Z,58.23
2019-03-24T08:06:49.538Z,54.63
2019-03-24T08:09:17.583Z,52.87
2019-03-24T08:11:45.637Z,56.50
2019-03-24T08:14:13.698Z,53.50
2019-03-24T08:16:41.751Z,58.00
2019-03-24T08:19:09.803Z,54.47
2019-03-24T08:21:37.870Z,49.70
2019-03-24T08:24:05.927Z,50.50
2019-03-24T08:26:33.983Z,54.20
2019-03-24T08:29:02.057Z,53.40
2019-03-24T08:31:30.107Z,53.47
2019-03-24T08:33:58.175Z,48.43
2019-03-24T08:36:26.235Z,47.53
2019-03-24T08:38:54.303Z,48.57
2019-03-24T08:41:22.358Z,50.30
2019-03-24T08:43:50.406Z,50.77
2019-03-24T08:46:18.471Z,52.63
2019-03-24T08:48:46.524Z,49.33
2019-03-24T08:51:15.361Z,49.60
2019-03-24T08:53:43.520Z,48.80
2019-03-24T08:56:11.565Z,47.37
2019-03-24T08:58:39.650Z,49.70
2019-03-24T09:01:07.697Z,45.63
2019-03-24T09:03:35.751Z,45.70
2019-03-24T09:06:03.901Z,46.87
2019-03-24T09:08:31.942Z,43.77
2019-03-24T09:11:00.001Z,45.97
2019-03-24T09:13:28.056Z,45.17
2019-03-24T09:15:56.174Z,45.63
2019-03-24T09:18:24.274Z,44.53
2019-03-24T09:20:52.290Z,44.77
2019-03-24T09:23:20.386Z,43.90
2019-03-24T09:25:48.430Z,44.93
2019-03-24T09:28:16.515Z,42.87
2019-03-24T09:30:44.578Z,43.63
2019-03-24T09:33:12.699Z,43.60
2019-03-24T09:35:40.735Z,44.60
2019-03-24T09:38:08.806Z,43.37
2019-03-24T09:40:36.865Z,43.00
2019-03-24T09:43:05.077Z,45.27
2019-03-24T09:45:33.215Z,44.43
2019-03-24T09:48:01.314Z,42.33
2019-03-24T09:50:29.530Z,41.47
2019-03-24T09:52:57.614Z,42.43
2019-03-24T09:55:25.658Z,42.67
2019-03-24T09:57:53.713Z,39.37
2019-03-24T10:00:21.779Z,41.60
2019-03-24T10:02:49.915Z,41.80
2019-03-24T10:05:18.065Z,42.03
2019-03-24T10:07:46.414Z,36.33
2019-03-24T10:10:14.561Z,37.90
2019-03-24T10:12:42.575Z,40.93
2019-03-24T10:15:10.857Z,38.60
2019-03-24T10:17:39.228Z,36.13
2019-03-24T10:20:07.571Z,42.13
2019-03-24T10:22:35.620Z,41.60
2019-03-24T10:25:05.037Z,37.97
2019-03-24T10:27:33.111Z,36.83
2019-03-24T10:30:01.156Z,37.33
2019-03-24T10:32:29.220Z,44.00
2019-03-24T10:34:57.259Z,39.83
2019-03-24T10:37:25.309Z,38.47
2019-03-24T10:39:53.378Z,37.13
2019-03-24T10:42:21.426Z,36.37
2019-03-24T10:44:49.540Z,38.83
2019-03-24T10:47:17.630Z,35.20
2019-03-24T10:49:45.677Z,36.30
2019-03-24T10:52:13.738Z,38.47
2019-03-24T10:54:41.803Z,34.17
2019-03-24T10:57:09.847Z,38.03
2019-03-24T10:59:37.898Z,34.33
2019-03-24T11:02:06.017Z,39.27
2019-03-24T11:04:34.058Z,38.43
2019-03-24T11:07:02.114Z,39.57
2019-03-24T11:09:31.428Z,36.17
2019-03-24T11:11:59.633Z,33.20
2019-03-24T11:14:27.700Z,35.73
2019-03-24T11:16:55.751Z,36.50
2019-03-24T11:19:23.820Z,32.60
2019-03-24T11:21:51.866Z,36.27
2019-03-24T11:24:19.923Z,31.73
2019-03-24T11:26:47.984Z,31.53
2019-03-24T11:29:16.044Z,35.73
2019-03-24T11:31:44.102Z,32.47
2019-03-24T11:34:12.167Z,27.37
2019-03-24T11:36:40.216Z,33.13
2019-03-24T11:39:08.336Z,34.03
2019-03-24T11:41:36.422Z,33.63
2019-03-24T11:44:04.475Z,37.00
2019-03-24T11:46:32.521Z,36.73
2019-03-24T11:49:00.630Z,32.37
2019-03-24T11:51:28.768Z,38.90
2019-03-24T11:53:56.849Z,34.30
2019-03-24T11:56:24.909Z,34.27
2019-03-24T11:58:53.007Z,33.93
2019-03-24T12:01:21.090Z,32.73
2019-03-24T12:03:49.220Z,32.77
2019-03-24T12:06:17.265Z,33.43
2019-03-24T12:08:45.326Z,33.43
2019-03-24T12:11:13.372Z,36.53
2019-03-24T12:13:41.411Z,32.50
2019-03-24T12:16:09.474Z,27.97
2019-03-24T12:18:37.539Z,23.73
2019-03-24T12:21:05.699Z,26.00
2019-03-24T12:23:33.950Z,25.83
2019-03-24T12:26:01.983Z,29.90
2019-03-24T12:28:30.090Z,28.80
2019-03-24T12:30:58.195Z,29.60
2019-03-24T12:33:26.247Z,29.90
2019-03-24T12:35:54.301Z,30.13
2019-03-24T12:38:22.366Z,26.40
2019-03-24T12:40:50.416Z,30.70
2019-03-24T12:43:19.815Z,32.07
2019-03-24T12:45:48.128Z,30.87
2019-03-24T12:48:16.196Z,31.70
2019-03-24T12:50:44.309Z,31.47
2019-03-24T12:53:12.379Z,33.50
2019-03-24T12:55:40.430Z,31.37
2019-03-24T12:58:08.480Z,29.50
2019-03-24T13:00:37.479Z,30.03
2019-03-24T13:03:05.662Z,30.50
2019-03-24T13:05:33.725Z,27.80
2019-03-24T13:08:09.098Z,29.50
2019-03-24T13:10:37.142Z,30.23
2019-03-24T13:13:05.203Z,27.73
2019-03-24T13:15:33.295Z,32.30
2019-03-24T13:18:01.419Z,31.43
2019-03-24T13:20:38.112Z,31.60
2019-03-24T13:22:59.246Z,26.00
2019-03-24T13:25:27.314Z,27.23
2019-03-24T13:27:55.402Z,29.10
2019-03-24T13:30:23.451Z,27.63
2019-03-24T13:32:51.515Z,28.37
2019-03-24T13:35:19.564Z,28.40
2019-03-24T13:37:47.608Z,29.93
2019-03-24T13:40:15.671Z,29.40
2019-03-24T13:42:43.722Z,28.73
2019-03-24T13:45:11.767Z,27.77
2019-03-24T13:47:39.878Z,28.20
2019-03-24T13:50:08.093Z,27.63
2019-03-24T13:52:36.515Z,28.57
2019-03-24T13:55:05.445Z,33.23
2019-03-24T13:57:33.517Z,27.33
2019-03-24T14:00:01.556Z,27.63
2019-03-24T14:02:29.632Z,30.07
2019-03-24T14:04:57.683Z,31.20
2019-03-24T14:07:25.761Z,31.93
2019-03-24T14:09:53.815Z,28.60
2019-03-24T14:12:21.938Z,29.33
2019-03-24T14:14:50.038Z,31.07
2019-03-24T14:17:18.102Z,30.60
2019-03-24T14:19:46.150Z,30.20
2019-03-24T14:22:14.237Z,33.00
2019-03-24T14:24:42.307Z,33.23
2019-03-24T14:27:10.366Z,30.93
2019-03-24T14:29:38.419Z,31.73
2019-03-24T14:32:06.466Z,28.20
2019-03-24T14:34:34.715Z,27.07
2019-03-24T14:37:02.782Z,26.13
2019-03-24T14:39:30.847Z,28.80
2019-03-24T14:41:58.887Z,26.10
2019-03-24T14:44:26.938Z,27.10
2019-03-24T14:46:55.017Z,27.17
2019-03-24T14:49:23.071Z,30.87
2019-03-24T14:51:52.520Z,25.83
2019-03-24T14:54:20.558Z,25.97
2019-03-24T14:56:48.624Z,20.90
2019-03-24T14:59:16.671Z,21.93
2019-03-24T15:01:44.786Z,20.70
2019-03-24T15:04:12.853Z,23.43
2019-03-24T15:06:40.910Z,22.57
2019-03-24T15:09:08.954Z,21.73
2019-03-24T15:11:37.014Z,22.23
2019-03-24T15:14:05.069Z,19.90
2019-03-24T15:16:33.290Z,21.37
2019-03-24T15:19:01.349Z,21.20
2019-03-24T15:21:29.396Z,21.10
2019-03-24T15:23:57.446Z,17.50
2019-03-24T15:26:25.502Z,17.73
2019-03-24T15:28:53.542Z,19.67
2019-03-24T15:31:21.627Z,19.47
2019-03-24T15:33:49.739Z,19.70
2019-03-24T15:36:17.782Z,16.03
2019-03-24T15:38:45.867Z,19.10
2019-03-24T15:41:13.886Z,17.20
2019-03-24T15:43:41.933Z,17.70
2019-03-24T15:46:09.999Z,16.23
2019-03-24T15:48:38.462Z,17.60
2019-03-24T15:51:16.734Z,16.17
2019-03-24T15:53:38.943Z,16.80
2019-03-24T15:56:06.994Z,17.53
2019-03-24T15:58:35.038Z,14.80
2019-03-24T16:01:03.083Z,13.70
2019-03-24T16:03:31.188Z,16.00
2019-03-24T16:05:59.226Z,16.33
2019-03-24T16:08:27.296Z,16.23
2019-03-24T16:10:55.350Z,16.10
2019-03-24T16:13:23.390Z,14.23
2019-03-24T16:15:51.477Z,16.90
2019-03-24T16:18:19.534Z,17.13
2019-03-24T16:20:47.587Z,18.60
2019-03-24T16:23:15.664Z,17.33
2019-03-24T16:25:43.708Z,16.67
2019-03-24T16:28:11.769Z,15.70
2019-03-24T16:30:39.857Z,14.67
2019-03-24T16:33:07.921Z,16.90
2019-03-24T16:35:35.963Z,17.97
2019-03-24T16:38:04.094Z,16.10
2019-03-24T16:40:32.151Z,16.83
2019-03-24T16:43:00.190Z,18.90
2019-03-24T16:45:28.296Z,17.63
2019-03-24T16:47:56.359Z,15.20
2019-03-24T16:50:24.444Z,13.87
2019-03-24T16:52:52.514Z,16.87
2019-03-24T16:55:20.572Z,16.93
2019-03-24T16:57:49.850Z,19.23
2019-03-24T17:00:18.065Z,14.57
2019-03-24T17:02:46.111Z,18.47
2019-03-24T17:05:14.165Z,13.93
2019-03-24T17:07:42.227Z,15.30
2019-03-24T17:10:10.362Z,14.17
2019-03-24T17:12:38.409Z,13.33
2019-03-24T17:15:06.969Z,18.73
2019-03-24T17:17:35.017Z,13.77
2019-03-24T17:20:04.338Z,16.10
2019-03-24T17:22:32.394Z,16.53
2019-03-24T17:25:00.435Z,14.77
2019-03-24T17:27:28.503Z,14.93
2019-03-24T17:29:56.548Z,14.40
2019-03-24T17:32:24.604Z,12.83
2019-03-24T17:34:52.651Z,15.43
2019-03-24T17:37:20.693Z,14.37
2019-03-24T17:39:48.750Z,13.37
2019-03-24T17:42:16.846Z,14.30
2019-03-24T17:44:44.890Z,14.67
2019-03-24T17:47:12.944Z,16.73
2019-03-24T17:49:41.006Z,15.87
2019-03-24T17:52:09.098Z,15.80
2019-03-24T17:54:37.174Z,16.17
2019-03-24T17:57:05.231Z,17.23
2019-03-24T17:59:33.286Z,17.37
2019-03-24T18:02:01.330Z,16.33
2019-03-24T18:04:29.378Z,16.93
2019-03-24T18:06:57.449Z,16.47
2019-03-24T18:09:25.494Z,17.93
2019-03-24T18:11:53.550Z,20.67
2019-03-24T18:14:21.613Z,20.03
2019-03-24T18:16:49.720Z,16.87
2019-03-24T18:19:17.770Z,17.97
2019-03-24T18:21:45.846Z,17.70
2019-03-24T18:24:13.897Z,15.23
2019-03-24T18:26:41.958Z,19.67
2019-03-24T18:29:10.009Z,18.73
2019-03-24T18:31:38.062Z,16.57
2019-03-24T18:34:06.105Z,16.63
2019-03-24T18:36:34.171Z,16.13
2019-03-24T18:39:02.223Z,13.70
2019-03-24T18:41:30.271Z,15.07
2019-03-24T18:43:58.313Z,16.73
2019-03-24T18:46:26.374Z,11.10
2019-03-24T18:48:54.440Z,16.23
2019-03-24T18:51:23.704Z,16.17
2019-03-24T18:53:51.963Z,11.93
2019-03-24T18:56:20.012Z,16.10
2019-03-24T18:58:48.054Z,12.20
2019-03-24T19:01:16.109Z,11.60
2019-03-24T19:03:44.143Z,11.27
2019-03-24T19:06:12.186Z,8.87
2019-03-24T19:08:40.299Z,10.73
2019-03-24T19:11:08.354Z,11.27
2019-03-24T19:13:36.406Z,12.43
2019-03-24T19:16:04.487Z,13.90
2019-03-24T19:18:32.543Z,11.90
2019-03-24T19:21:00.586Z,11.87
2019-03-24T19:23:28.635Z,10.90
2019-03-24T19:25:56.704Z,10.27
2019-03-24T19:28:24.890Z,10.60
2019-03-24T19:30:53.014Z,12.50
2019-03-24T19:33:21.118Z,12.53
2019-03-24T19:35:49.236Z,7.83
2019-03-24T19:38:17.346Z,13.57
2019-03-24T19:40:45.395Z,9.80
2019-03-24T19:43:13.454Z,8.43
2019-03-24T19:45:41.502Z,11.10
2019-03-24T19:48:09.566Z,14.77
2019-03-24T19:50:37.619Z,10.20
2019-03-24T19:53:05.673Z,10.07
2019-03-24T19:55:33.905Z,9.77
2019-03-24T19:58:01.954Z,10.10
2019-03-24T20:00:29.994Z,8.30
2019-03-24T20:02:58.050Z,8.90
2019-03-24T20:05:27.015Z,11.00
2019-03-24T20:07:55.143Z,8.03
2019-03-24T20:10:23.186Z,10.93
2019-03-24T20:12:51.244Z,9.53
2019-03-24T20:15:19.274Z,8.97
2019-03-24T20:17:47.328Z,9.97
2019-03-24T20:20:15.483Z,10.23
2019-03-24T20:22:43.523Z,13.00
2019-03-24T20:25:12.314Z,10.03
2019-03-24T20:27:41.078Z,9.80
2019-03-24T20:30:10.495Z,11.53
2019-03-24T20:32:38.551Z,8.53
2019-03-24T20:35:07.365Z,6.80
2019-03-24T20:37:35.410Z,6.57
2019-03-24T20:40:04.730Z,6.93
2019-03-24T20:42:32.807Z,10.83
2019-03-24T20:45:00.834Z,8.27
2019-03-24T20:47:28.914Z,11.17
2019-03-24T20:49:56.954Z,5.43
2019-03-24T20:52:27.215Z,6.03
2019-03-24T20:54:55.518Z,6.23
2019-03-24T20:57:24.414Z,8.03
2019-03-24T20:59:52.479Z,6.73
2019-03-24T21:02:20.567Z,8.67
2019-03-24T21:04:48.619Z,7.00
2019-03-24T21:07:16.682Z,7.27
2019-03-24T21:09:46.577Z,8.90
2019-03-24T21:12:14.487Z,12.43
2019-03-24T21:14:42.545Z,5.43
2019-03-24T21:17:10.587Z,5.40
2019-03-24T21:19:38.624Z,9.13
2019-03-24T21:22:06.698Z,8.30
2019-03-24T21:24:34.746Z,10.13
2019-03-24T21:27:02.802Z,5.03
2019-03-24T21:29:31.977Z,6.83
2019-03-24T21:32:00.052Z,7.13
2019-03-24T21:34:28.102Z,4.73
2019-03-24T21:36:56.133Z,7.20
2019-03-24T21:39:24.189Z,9.13
2019-03-24T21:41:52.464Z,7.10
2019-03-24T21:44:20.525Z,9.70
2019-03-24T21:46:48.606Z,7.33
2019-03-24T21:49:16.732Z,7.47
2019-03-24T21:51:46.364Z,6.63
2019-03-24T21:54:14.462Z,8.13
2019-03-24T21:56:42.501Z,6.57
2019-03-24T21:59:10.553Z,8.17
2019-03-24T22:01:38.615Z,8.50
2019-03-24T22:04:06.658Z,4.37
2019-03-24T22:06:34.718Z,7.30
2019-03-24T22:09:02.755Z,7.13
2019-03-24T22:11:30.798Z,8.13
2019-03-24T22:13:58.854Z,8.77
2019-03-24T22:16:26.898Z,7.20
2019-03-24T22:18:54.946Z,9.83
2019-03-24T22:21:23.035Z,7.53
2019-03-24T22:23:52.585Z,7.20
2019-03-24T22:26:20.803Z,7.27
2019-03-24T22:28:48.846Z,5.87
2019-03-24T22:31:16.903Z,7.13
2019-03-24T22:33:44.962Z,7.87
2019-03-24T22:36:13.008Z,5.77
2019-03-24T22:38:41.073Z,5.73
2019-03-24T22:41:09.166Z,4.83
2019-03-24T22:43:37.292Z,6.27
2019-03-24T22:46:05.330Z,10.90
2019-03-24T22:48:33.410Z,6.70
2019-03-24T22:51:01.494Z,9.17
2019-03-24T22:53:29.531Z,7.30
2019-03-24T22:55:57.570Z,10.63
2019-03-24T22:58:25.667Z,7.87
2019-03-24T23:00:54.558Z,9.03
2019-03-24T23:03:24.908Z,7.60
2019-03-24T23:05:52.452Z,7.40
2019-03-24T23:08:20.659Z,6.97
2019-03-24T23:10:48.706Z,8.07
2019-03-24T23:13:16.783Z,6.63
2019-03-24T23:15:44.843Z,6.33
2019-03-24T23:18:12.890Z,7.90
2019-03-24T23:20:40.943Z,5.67
2019-03-24T23:23:08.993Z,9.13
2019-03-24T23:25:37.044Z,10.50
2019-03-24T23:28:05.171Z,5.20
2019-03-24T23:30:33.269Z,8.07
2019-03-24T23:33:01.314Z,7.60
2019-03-24T23:35:29.377Z,7.37
2019-03-24T23:37:57.410Z,7.40
2019-03-24T23:40:25.455Z,6.20
2019-03-24T23:42:53.533Z,7.70
2019-03-24T23:45:21.596Z,5.47
2019-03-24T23:47:49.666Z,7.70
2019-03-24T23:50:17.718Z,6.57
2019-03-24T23:52:45.763Z,12.10
2019-03-24T23:55:13.821Z,9.37
2019-03-24T23:57:41.906Z,10.23
